CheckWX is a tool to help pilots better visualize weather data.  It is not intended as a substitute for an official pre-flight weather briefing.

08:14:04 UTC

KRAC METAR
Batten International Airport
Racine, Wisconsin, USA
Current

21 mins ago

KRAC 220753Z AUTO 00000KT 9SM CLR M07/M11 A3039 RMK AO2 SLP302 T10721111
Observed
Feb-22 @ 07:53 UTC
Visibility
9 SM
Flight Rules
VFR
Cloud Levels
  • Clear skies
Temperature
-7°C / 19°F
Dewpoint
-11°C / 12°F
Humidity
73%
Altimeter
30.39" Hg
Pressure
1030.2 hPa
Previous

1 hour ago

KRAC 220653Z AUTO 28004KT 9SM CLR M07/M11 A3037 RMK AO2 SLP295 T10721111
Observed
Feb-22 @ 06:53 UTC
Wind
  • 280° at 4 KTS
Visibility
9 SM
Flight Rules
VFR
Cloud Levels
  • Clear skies
Temperature
-7°C / 19°F
Dewpoint
-11°C / 12°F
Humidity
73%
Altimeter
30.37" Hg
Pressure
1029.5 hPa
Previous

2 hours ago

KRAC 220553Z AUTO 26004KT 10SM CLR M07/M11 A3035 RMK AO2 SLP287 T10721111 11028 21089 400111089 51016
Observed
Feb-22 @ 05:53 UTC
Wind
  • 260° at 4 KTS
Visibility
10 SM
Flight Rules
VFR
Cloud Levels
  • Clear skies
Temperature
-7°C / 19°F
Dewpoint
-11°C / 12°F
Humidity
73%
Altimeter
30.35" Hg
Pressure
1028.7 hPa